Flight Track Log - Related Links

Times and Time Zones

All times are in EDT time to prevent confusion due to time zone crossing. See the SKW6492 flight status page for this flight to view local times or setup timezone preferences in your user account.

Time Position Orientation Groundspeed Altitude Reporting Facility
EDT Latitude Longitude Course Direction KTS MPH feet Rate Location/Type
Mon 10:04:01 PM 39.9833 -104.6833 348° North 260 299 8,200  Level Denver TRACON
Mon 10:05:00 PM 40.1650 -104.7711 347° North  Level FlightAware Approximate
Mon 10:05:09 PM 40.0717 -104.6614 11° North 293 337 10,000  Level Denver Center
Mon 10:06:00 PM 40.2708 -104.8029 347° North  Level FlightAware Approximate
Mon 10:06:11 PM 40.1558 -104.6825 349° North 309 356 11,700  Level Denver Center
Mon 10:07:00 PM 40.3763 -104.8365 346° North  Level FlightAware Approximate
Mon 10:07:13 PM 40.2481 -104.7064 349° North 314 361 13,900  Level Denver Center
Mon 10:08:00 PM 40.4815 -104.8716 346° North  Level FlightAware Approximate
Mon 10:08:15 PM 40.3358 -104.7286 349° North 319 367 15,700  Level Denver Center
Mon 10:09:00 PM 40.5873 -104.9035 348° North  Level FlightAware Approximate
Mon 10:09:17 PM 40.4272 -104.7542 348° North 336 387 16,700  Level Denver Center
Mon 10:10:19 PM 40.5283 -104.7808 349° North 350 403 18,000 1,258 Climbing Denver Center
Mon 10:11:21 PM 40.6258 -104.8067 349° North 353 406 19,300 1,452 Climbing Denver Center
Mon 10:12:23 PM 40.7314 -104.8364 348° North 357 411 21,000 1,306 Climbing Denver Center
Mon 10:13:25 PM 40.8147 -104.8622 347° North 345 397 22,000 1,113 Climbing Denver Center
Mon 10:14:27 PM 40.9297 -104.9181 340° North 363 418 23,300 1,065 Climbing Denver Center
Mon 10:15:29 PM 41.0272 -104.9664 339° North 368 423 24,200 823 Climbing Denver Center
Mon 10:16:31 PM 41.1222 -105.0139 339° North 376 433 25,000 823 Climbing Denver Center
Mon 10:17:33 PM 41.2344 -105.0692 340° North 381 438 25,900 488 Climbing Denver Center
Mon 10:18:34 PM 41.3333 -105.1219 338° Northwest 392 451 26,000 49 Climbing Denver Center
Mon 10:19:36 PM 41.4161 -105.2158 320° Northwest 408 470 26,000  Level Denver Center
Mon 10:20:38 PM 41.5150 -105.3286 320° Northwest 418 481 26,000  Level Denver Center
Mon 10:21:40 PM 41.6042 -105.4317 319° Northwest 434 499 26,000  Level Denver Center
Mon 10:22:42 PM 41.7061 -105.5511 319° Northwest 437 503 26,000  Level Denver Center
Mon 10:23:44 PM 41.7956 -105.6528 320° Northwest 437 503 26,000  Level Denver Center
Mon 10:24:46 PM 41.9006 -105.7758 319° Northwest 442 509 26,000  Level Denver Center
Mon 10:25:48 PM 41.9917 -105.8819 319° Northwest 451 519 26,000  Level Denver Center
Mon 10:26:51 PM 42.0956 -106.0053 319° Northwest 448 516 26,000  Level Denver Center
Mon 10:27:53 PM 42.1844 -106.1114 319° Northwest 443 510 26,000  Level Denver Center
Mon 10:28:55 PM 42.2908 -106.2367 319° Northwest 451 519 26,000  Level Denver Center
Mon 10:29:57 PM 42.3811 -106.3431 319° Northwest 450 518 26,000  Level Denver Center
Mon 10:30:59 PM 42.4708 -106.4503 319° Northwest 450 518 26,000  Level Denver Center
Mon 10:32:01 PM 42.5736 -106.5744 318° Northwest 446 513 26,000  Level Denver Center
Mon 10:33:03 PM 42.6622 -106.6819 318° Northwest 446 513 26,000  Level Denver Center
Mon 10:34:05 PM 42.7653 -106.8089 318° Northwest 446 513 26,000  Level Denver Center
Mon 10:35:07 PM 42.8556 -106.9150 319° Northwest 446 513 26,000  Level Denver Center
Mon 10:36:09 PM 42.9575 -107.0417 318° Northwest 446 513 26,000  Level Denver Center
Mon 10:37:03 PM 43.0325 -107.1306 319° Northwest 441 507 26,000  Level Salt Lake Center
Mon 10:38:05 PM 43.1250 -107.2469 317° Northwest 447 514 26,000  Level Salt Lake Center
Mon 10:39:07 PM 43.2169 -107.3628 317° Northwest 451 519 26,000  Level Salt Lake Center
Mon 10:40:08 PM 43.3272 -107.4975 318° Northwest 444 511 26,000  Level Salt Lake Center
Mon 10:41:10 PM 43.4172 -107.6114 317° Northwest 443 510 26,000  Level Salt Lake Center
Mon 10:42:12 PM 43.5089 -107.7250 318° Northwest 442 509 26,000  Level Salt Lake Center
Mon 10:43:14 PM 43.5997 -107.8394 318° Northwest 443 510 26,000  Level Salt Lake Center
Mon 10:44:16 PM 43.6897 -107.9536 317° Northwest 442 509 26,000  Level Salt Lake Center
Mon 10:45:18 PM 43.7806 -108.0689 318° Northwest 442 509 26,000 -97 Level Salt Lake Center
Mon 10:46:20 PM 43.8714 -108.1842 318° Northwest 442 509 25,800 -1,839 Descending Salt Lake Center
Mon 10:47:22 PM 43.9769 -108.3186 318° Northwest 430 495 22,200 -3,220 Descending Salt Lake Center
Mon 10:48:23 PM 44.0564 -108.4217 317° Northwest 400 460 19,200 -2,829 Descending Salt Lake Center
Mon 10:49:25 PM 44.1331 -108.5228 317° Northwest 388 447 16,400 -2,468 Descending Salt Lake Center
Mon 10:50:27 PM 44.2069 -108.6186 317° Northwest 378 435 14,100 -1,935 Descending Salt Lake Center
Mon 10:51:29 PM 44.2789 -108.7122 317° Northwest 367 422 12,400 -1,452 Descending Salt Lake Center
Mon 10:52:31 PM 44.3486 -108.8019 317° Northwest 356 410 11,100 -1,122 Descending Salt Lake Center
Mon 10:53:32 PM 44.4233 -108.8328 344° North 312 359 10,100 -878 Descending Salt Lake Center
Mon 10:54:34 PM 44.4914 -108.8525 348° North 277 319 9,300 -1,306 Descending Salt Lake Center
Mon 10:55:36 PM 44.5519 -108.8944 334° Northwest 232 267 7,400 -1,403 Descending Salt Lake Center
Mon 10:56:38 PM 44.5633 -108.9497 286° West 186 214 6,400 -732 Descending Salt Lake Center
Mon 10:57:39 PM 44.5383 -108.9936 231° Southwest 175 201 5,900 -492 Descending Salt Lake Center

Login

Don't have an account? Register now (free) for customized features, flight alerts, and more!